sensor_id;sensor_type;location;lat;lon;timestamp;pressure;altitude;pressure_sealevel;temperature;humidity
45369;BME280;51342;55.250;37.668;2022-08-01T00:02:02;99812.59;;;12.01;70.94
45369;BME280;51342;55.250;37.668;2022-08-01T00:04:33;99817.72;;;11.99;70.59
45369;BME280;51342;55.250;37.668;2022-08-01T00:07:05;99817.66;;;11.98;71.02
45369;BME280;51342;55.250;37.668;2022-08-01T00:09:36;99817.41;;;11.93;70.94
45369;BME280;51342;55.250;37.668;2022-08-01T00:12:08;99820.06;;;11.94;71.23
45369;BME280;51342;55.250;37.668;2022-08-01T00:14:39;99814.63;;;11.90;71.31
45369;BME280;51342;55.250;37.668;2022-08-01T00:17:11;99814.63;;;11.90;70.92
45369;BME280;51342;55.250;37.668;2022-08-01T00:19:42;99818.91;;;11.89;71.26
45369;BME280;51342;55.250;37.668;2022-08-01T00:22:14;99811.06;;;11.88;71.37
45369;BME280;51342;55.250;37.668;2022-08-01T00:24:45;99815.44;;;11.89;71.06
45369;BME280;51342;55.250;37.668;2022-08-01T00:27:17;99821.44;;;11.88;70.76
45369;BME280;51342;55.250;37.668;2022-08-01T00:29:48;99825.72;;;11.87;70.92
45369;BME280;51342;55.250;37.668;2022-08-01T00:32:20;99824.66;;;11.84;70.89
45369;BME280;51342;55.250;37.668;2022-08-01T00:34:51;99824.59;;;11.82;70.94
45369;BME280;51342;55.250;37.668;2022-08-01T00:37:22;99822.88;;;11.83;71.58
45369;BME280;51342;55.250;37.668;2022-08-01T00:39:54;99827.06;;;11.81;71.22
45369;BME280;51342;55.250;37.668;2022-08-01T00:42:25;99827.06;;;11.81;71.62
45369;BME280;51342;55.250;37.668;2022-08-01T00:44:57;99821.88;;;11.81;71.41
45369;BME280;51342;55.250;37.668;2022-08-01T00:47:28;99828.88;;;11.82;71.30
45369;BME280;51342;55.250;37.668;2022-08-01T00:50:00;99819.94;;;11.77;71.61
45369;BME280;51342;55.250;37.668;2022-08-01T00:52:33;99824.84;;;11.72;71.51
45369;BME280;51342;55.250;37.668;2022-08-01T00:55:05;99815.94;;;11.67;71.82
45369;BME280;51342;55.250;37.668;2022-08-01T00:57:37;99822.81;;;11.66;71.80
45369;BME280;51342;55.250;37.668;2022-08-01T01:00:10;99821.94;;;11.66;71.88
45369;BME280;51342;55.250;37.668;2022-08-01T01:02:42;99828.00;;;11.66;72.05
45369;BME280;51342;55.250;37.668;2022-08-01T01:05:14;99827.94;;;11.65;72.00
45369;BME280;51342;55.250;37.668;2022-08-01T01:08:18;99825.00;;;11.59;72.34
45369;BME280;51342;55.250;37.668;2022-08-01T01:10:52;99829.72;;;11.66;72.52
45369;BME280;51342;55.250;37.668;2022-08-01T01:16:07;99821.22;;;11.68;72.67
45369;BME280;51342;55.250;37.668;2022-08-01T01:18:51;99818.53;;;11.67;72.49
45369;BME280;51342;55.250;37.668;2022-08-01T01:24:37;99814.50;;;11.72;73.08
45369;BME280;51342;55.250;37.668;2022-08-01T01:27:27;99815.50;;;11.74;73.06
45369;BME280;51342;55.250;37.668;2022-08-01T01:30:01;99813.13;;;11.79;73.53
45369;BME280;51342;55.250;37.668;2022-08-01T01:32:39;99811.34;;;11.78;73.33
45369;BME280;51342;55.250;37.668;2022-08-01T01:35:21;99808.81;;;11.79;73.31
45369;BME280;51342;55.250;37.668;2022-08-01T01:38:18;99807.78;;;11.76;73.28
45369;BME280;51342;55.250;37.668;2022-08-01T01:40:52;99811.53;;;11.81;73.00
45369;BME280;51342;55.250;37.668;2022-08-01T01:43:24;99807.25;;;11.81;73.39
45369;BME280;51342;55.250;37.668;2022-08-01T01:45:57;99813.47;;;11.85;73.49
45369;BME280;51342;55.250;37.668;2022-08-01T01:48:30;99812.84;;;11.89;72.94
45369;BME280;51342;55.250;37.668;2022-08-01T01:51:03;99812.13;;;11.91;73.62
45369;BME280;51342;55.250;37.668;2022-08-01T01:53:35;99815.75;;;11.95;73.72
45369;BME280;51342;55.250;37.668;2022-08-01T01:56:09;99814.00;;;11.94;74.05
45369;BME280;51342;55.250;37.668;2022-08-01T01:58:41;99819.75;;;12.05;74.02
45369;BME280;51342;55.250;37.668;2022-08-01T02:01:14;99812.03;;;12.06;74.42
45369;BME280;51342;55.250;37.668;2022-08-01T02:03:47;99822.84;;;12.14;74.51
45369;BME280;51342;55.250;37.668;2022-08-01T02:06:20;99817.06;;;12.19;74.70
45369;BME280;51342;55.250;37.668;2022-08-01T02:08:54;99814.56;;;12.21;74.55
45369;BME280;51342;55.250;37.668;2022-08-01T02:11:25;99809.63;;;12.26;74.45
45369;BME280;51342;55.250;37.668;2022-08-01T02:13:59;99818.09;;;12.39;74.43
45369;BME280;51342;55.250;37.668;2022-08-01T02:16:34;99814.53;;;12.54;74.29
45369;BME280;51342;55.250;37.668;2022-08-01T02:19:07;99810.34;;;12.73;74.18
45369;BME280;51342;55.250;37.668;2022-08-01T02:21:44;99806.94;;;12.92;73.82
45369;BME280;51342;55.250;37.668;2022-08-01T02:24:38;99818.00;;;13.22;73.06
45369;BME280;51342;55.250;37.668;2022-08-01T02:27:20;99804.53;;;13.49;72.11
45369;BME280;51342;55.250;37.668;2022-08-01T02:29:59;99810.91;;;13.73;71.13
45369;BME280;51342;55.250;37.668;2022-08-01T02:32:36;99800.44;;;13.91;70.63
45369;BME280;51342;55.250;37.668;2022-08-01T02:35:13;99803.81;;;14.08;70.40
45369;BME280;51342;55.250;37.668;2022-08-01T02:37:45;99798.09;;;14.17;69.98
45369;BME280;51342;55.250;37.668;2022-08-01T02:40:19;99797.47;;;14.22;70.21
45369;BME280;51342;55.250;37.668;2022-08-01T02:42:52;99802.16;;;14.29;70.53
45369;BME280;51342;55.250;37.668;2022-08-01T02:45:26;99799.88;;;14.37;70.34
45369;BME280;51342;55.250;37.668;2022-08-01T02:48:03;99804.25;;;14.38;70.36
45369;BME280;51342;55.250;37.668;2022-08-01T02:50:38;99798.44;;;14.44;70.78
45369;BME280;51342;55.250;37.668;2022-08-01T02:53:13;99806.28;;;14.45;71.44
45369;BME280;51342;55.250;37.668;2022-08-01T02:55:46;99798.72;;;14.50;71.30
45369;BME280;51342;55.250;37.668;2022-08-01T02:58:19;99802.28;;;14.52;70.81
45369;BME280;51342;55.250;37.668;2022-08-01T03:00:52;99801.78;;;14.61;70.76
45369;BME280;51342;55.250;37.668;2022-08-01T03:03:24;99803.63;;;14.63;70.91
45369;BME280;51342;55.250;37.668;2022-08-01T03:05:58;99808.56;;;14.76;70.74
45369;BME280;51342;55.250;37.668;2022-08-01T03:08:31;99802.88;;;15.07;70.60
45369;BME280;51342;55.250;37.668;2022-08-01T03:11:04;99799.34;;;15.49;69.59
45369;BME280;51342;55.250;37.668;2022-08-01T03:13:37;99802.03;;;15.95;68.87
45369;BME280;51342;55.250;37.668;2022-08-01T03:16:10;99800.06;;;16.37;67.80
45369;BME280;51342;55.250;37.668;2022-08-01T03:18:43;99804.72;;;16.70;67.20
45369;BME280;51342;55.250;37.668;2022-08-01T03:21:19;99803.09;;;16.99;66.42
45369;BME280;51342;55.250;37.668;2022-08-01T03:23:53;99809.03;;;17.20;66.16
45369;BME280;51342;55.250;37.668;2022-08-01T03:26:30;99802.81;;;17.44;65.61
45369;BME280;51342;55.250;37.668;2022-08-01T03:29:06;99794.69;;;17.63;65.29
45369;BME280;51342;55.250;37.668;2022-08-01T03:31:38;99800.66;;;17.86;65.09
45369;BME280;51342;55.250;37.668;2022-08-01T03:34:13;99795.09;;;18.04;63.15
45369;BME280;51342;55.250;37.668;2022-08-01T03:36:49;99789.53;;;18.25;62.12
45369;BME280;51342;55.250;37.668;2022-08-01T03:39:22;99785.78;;;18.47;60.83
45369;BME280;51342;55.250;37.668;2022-08-01T03:42:01;99782.94;;;18.69;60.56
45369;BME280;51342;55.250;37.668;2022-08-01T03:44:36;99785.25;;;18.92;59.48
45369;BME280;51342;55.250;37.668;2022-08-01T03:47:10;99785.63;;;19.07;59.12
45369;BME280;51342;55.250;37.668;2022-08-01T03:49:44;99781.81;;;19.30;58.62
45369;BME280;51342;55.250;37.668;2022-08-01T03:52:18;99783.25;;;19.54;56.85
45369;BME280;51342;55.250;37.668;2022-08-01T03:54:54;99789.53;;;19.61;57.57
45369;BME280;51342;55.250;37.668;2022-08-01T03:57:28;99782.63;;;19.64;57.10
45369;BME280;51342;55.250;37.668;2022-08-01T04:00:01;99785.53;;;19.78;55.65
45369;BME280;51342;55.250;37.668;2022-08-01T04:02:33;99776.13;;;19.88;55.18
45369;BME280;51342;55.250;37.668;2022-08-01T04:05:05;99774.47;;;19.91;55.67
45369;BME280;51342;55.250;37.668;2022-08-01T04:07:36;99766.72;;;19.97;55.57
45369;BME280;51342;55.250;37.668;2022-08-01T04:10:10;99763.50;;;20.13;55.27
45369;BME280;51342;55.250;37.668;2022-08-01T04:12:42;99763.78;;;20.26;53.88
45369;BME280;51342;55.250;37.668;2022-08-01T04:15:13;99776.19;;;20.34;53.54
45369;BME280;51342;55.250;37.668;2022-08-01T04:17:45;99773.66;;;20.37;53.64
45369;BME280;51342;55.250;37.668;2022-08-01T04:20:17;99765.78;;;20.39;53.51
45369;BME280;51342;55.250;37.668;2022-08-01T04:22:48;99775.50;;;20.43;53.68
45369;BME280;51342;55.250;37.668;2022-08-01T04:25:31;99775.56;;;20.46;53.72
45369;BME280;51342;55.250;37.668;2022-08-01T04:28:05;99780.16;;;20.56;53.01
45369;BME280;51342;55.250;37.668;2022-08-01T04:30:39;99785.53;;;20.62;53.18
45369;BME280;51342;55.250;37.668;2022-08-01T04:33:13;99784.84;;;20.73;53.12
45369;BME280;51342;55.250;37.668;2022-08-01T04:35:48;99781.44;;;20.80;53.11
45369;BME280;51342;55.250;37.668;2022-08-01T04:38:22;99780.91;;;20.99;54.01
45369;BME280;51342;55.250;37.668;2022-08-01T04:40:56;99784.66;;;21.15;52.67
45369;BME280;51342;55.250;37.668;2022-08-01T04:43:28;99787.34;;;21.16;52.86
45369;BME280;51342;55.250;37.668;2022-08-01T04:46:00;99789.09;;;21.17;51.98
45369;BME280;51342;55.250;37.668;2022-08-01T04:48:37;99782.91;;;21.14;51.33
45369;BME280;51342;55.250;37.668;2022-08-01T04:51:13;99787.25;;;21.10;51.92
45369;BME280;51342;55.250;37.668;2022-08-01T04:53:46;99792.63;;;21.20;52.48
45369;BME280;51342;55.250;37.668;2022-08-01T04:56:19;99784.06;;;21.30;51.74
45369;BME280;51342;55.250;37.668;2022-08-01T04:58:51;99788.59;;;21.40;51.57
45369;BME280;51342;55.250;37.668;2022-08-01T05:01:48;99791.53;;;21.60;52.12
45369;BME280;51342;55.250;37.668;2022-08-01T05:04:19;99789.03;;;21.70;51.93
45369;BME280;51342;55.250;37.668;2022-08-01T05:06:51;99794.44;;;21.80;50.87
45369;BME280;51342;55.250;37.668;2022-08-01T05:09:22;99797.16;;;21.84;50.67
45369;BME280;51342;55.250;37.668;2022-08-01T05:11:54;99792.72;;;21.83;49.74
45369;BME280;51342;55.250;37.668;2022-08-01T05:14:25;99795.34;;;21.83;50.27
45369;BME280;51342;55.250;37.668;2022-08-01T05:16:58;99791.09;;;21.93;50.66
45369;BME280;51342;55.250;37.668;2022-08-01T05:19:32;99796.56;;;22.08;50.93
45369;BME280;51342;55.250;37.668;2022-08-01T05:22:06;99793.25;;;22.23;51.12
45369;BME280;51342;55.250;37.668;2022-08-01T05:24:39;99785.50;;;22.35;49.80
45369;BME280;51342;55.250;37.668;2022-08-01T05:27:13;99785.59;;;22.46;49.15
45369;BME280;51342;55.250;37.668;2022-08-01T05:29:45;99788.41;;;22.63;50.86
45369;BME280;51342;55.250;37.668;2022-08-01T05:32:16;99785.94;;;22.80;50.24
45369;BME280;51342;55.250;37.668;2022-08-01T05:34:48;99788.75;;;22.92;48.32
45369;BME280;51342;55.250;37.668;2022-08-01T05:37:19;99788.72;;;22.90;48.86
45369;BME280;51342;55.250;37.668;2022-08-01T05:39:51;99780.84;;;22.95;49.31
45369;BME280;51342;55.250;37.668;2022-08-01T05:42:23;99776.53;;;23.03;48.26
45369;BME280;51342;55.250;37.668;2022-08-01T05:44:55;99775.66;;;23.06;47.92
45369;BME280;51342;55.250;37.668;2022-08-01T05:47:27;99783.66;;;23.16;49.00
45369;BME280;51342;55.250;37.668;2022-08-01T05:49:58;99770.50;;;23.21;47.75
45369;BME280;51342;55.250;37.668;2022-08-01T05:52:29;99777.63;;;23.36;47.89
45369;BME280;51342;55.250;37.668;2022-08-01T05:55:02;99775.94;;;23.44;45.80
45369;BME280;51342;55.250;37.668;2022-08-01T05:57:33;99778.56;;;23.38;45.58
45369;BME280;51342;55.250;37.668;2022-08-01T06:00:05;99780.25;;;23.30;45.40
45369;BME280;51342;55.250;37.668;2022-08-01T06:02:43;99781.09;;;23.25;46.36
45369;BME280;51342;55.250;37.668;2022-08-01T06:05:15;99775.84;;;23.28;45.87
45369;BME280;51342;55.250;37.668;2022-08-01T06:07:47;99778.47;;;23.28;45.58
45369;BME280;51342;55.250;37.668;2022-08-01T06:10:18;99777.63;;;23.33;45.50
45369;BME280;51342;55.250;37.668;2022-08-01T06:12:50;99780.31;;;23.37;45.81
45369;BME280;51342;55.250;37.668;2022-08-01T06:15:21;99778.53;;;23.36;46.33
45369;BME280;51342;55.250;37.668;2022-08-01T06:17:52;99781.22;;;23.44;44.54
45369;BME280;51342;55.250;37.668;2022-08-01T06:20:24;99780.38;;;23.49;46.02
45369;BME280;51342;55.250;37.668;2022-08-01T06:22:55;99786.59;;;23.56;45.59
45369;BME280;51342;55.250;37.668;2022-08-01T06:25:27;99786.56;;;23.53;44.79
45369;BME280;51342;55.250;37.668;2022-08-01T06:27:59;99779.50;;;23.50;44.74
45369;BME280;51342;55.250;37.668;2022-08-01T06:30:30;99784.78;;;23.49;44.10
45369;BME280;51342;55.250;37.668;2022-08-01T06:33:02;99791.84;;;23.50;43.99
45369;BME280;51342;55.250;37.668;2022-08-01T06:35:34;99803.28;;;23.49;43.00
45369;BME280;51342;55.250;37.668;2022-08-01T06:38:05;99801.41;;;23.36;44.38
45369;BME280;51342;55.250;37.668;2022-08-01T06:40:36;99796.03;;;23.22;44.76
45369;BME280;51342;55.250;37.668;2022-08-01T06:43:09;99802.16;;;23.19;45.25
45369;BME280;51342;55.250;37.668;2022-08-01T06:45:42;99801.25;;;23.16;44.27
45369;BME280;51342;55.250;37.668;2022-08-01T06:48:14;99807.44;;;23.16;45.43
45369;BME280;51342;55.250;37.668;2022-08-01T06:50:45;99804.84;;;23.22;44.91
45369;BME280;51342;55.250;37.668;2022-08-01T06:53:17;99803.06;;;23.24;45.18
45369;BME280;51342;55.250;37.668;2022-08-01T06:55:48;99803.06;;;23.23;44.97
45369;BME280;51342;55.250;37.668;2022-08-01T06:58:20;99808.34;;;23.23;46.07
45369;BME280;51342;55.250;37.668;2022-08-01T07:00:51;99802.16;;;23.16;44.66
45369;BME280;51342;55.250;37.668;2022-08-01T07:03:23;99802.06;;;23.07;45.38
45369;BME280;51342;55.250;37.668;2022-08-01T07:05:54;99809.16;;;23.14;46.18
45369;BME280;51342;55.250;37.668;2022-08-01T07:08:26;99811.03;;;23.27;45.17
45369;BME280;51342;55.250;37.668;2022-08-01T07:10:57;99803.19;;;23.38;45.10
45369;BME280;51342;55.250;37.668;2022-08-01T07:13:30;99810.31;;;23.50;44.81
45369;BME280;51342;55.250;37.668;2022-08-01T07:16:02;99809.50;;;23.60;44.41
45369;BME280;51342;55.250;37.668;2022-08-01T07:18:34;99807.78;;;23.62;44.30
45369;BME280;51342;55.250;37.668;2022-08-01T07:21:05;99802.41;;;23.53;44.80
45369;BME280;51342;55.250;37.668;2022-08-01T07:23:37;99799.72;;;23.47;43.02
45369;BME280;51342;55.250;37.668;2022-08-01T07:26:08;99807.59;;;23.41;43.94
45369;BME280;51342;55.250;37.668;2022-08-01T07:28:40;99811.16;;;23.43;44.74
45369;BME280;51342;55.250;37.668;2022-08-01T07:31:11;99810.31;;;23.51;44.80
45369;BME280;51342;55.250;37.668;2022-08-01T07:33:42;99805.91;;;23.50;46.58
45369;BME280;51342;55.250;37.668;2022-08-01T07:36:14;99804.16;;;23.51;45.08
45369;BME280;51342;55.250;37.668;2022-08-01T07:38:46;99809.41;;;23.45;43.77
45369;BME280;51342;55.250;37.668;2022-08-01T07:41:18;99805.84;;;23.40;43.63
45369;BME280;51342;55.250;37.668;2022-08-01T07:43:50;99805.88;;;23.43;44.44
45369;BME280;51342;55.250;37.668;2022-08-01T07:46:21;99805.91;;;23.50;43.57
45369;BME280;51342;55.250;37.668;2022-08-01T07:48:53;99806.84;;;23.56;44.37
45369;BME280;51342;55.250;37.668;2022-08-01T07:51:24;99806.03;;;23.64;43.66
45369;BME280;51342;55.250;37.668;2022-08-01T07:53:55;99810.50;;;23.76;45.96
45369;BME280;51342;55.250;37.668;2022-08-01T07:56:27;99802.66;;;23.88;44.87
45369;BME280;51342;55.250;37.668;2022-08-01T07:58:58;99807.13;;;24.00;43.93
45369;BME280;51342;55.250;37.668;2022-08-01T08:01:30;99799.25;;;24.12;44.09
45369;BME280;51342;55.250;37.668;2022-08-01T08:04:01;99800.16;;;24.26;43.65
45369;BME280;51342;55.250;37.668;2022-08-01T08:06:33;99791.41;;;24.33;41.69
45369;BME280;51342;55.250;37.668;2022-08-01T08:09:04;99800.25;;;24.36;42.79
45369;BME280;51342;55.250;37.668;2022-08-01T08:11:36;99796.75;;;24.47;41.88
45369;BME280;51342;55.250;37.668;2022-08-01T08:14:07;99794.13;;;24.61;41.68
45369;BME280;51342;55.250;37.668;2022-08-01T08:16:39;99795.03;;;24.63;42.62
45369;BME280;51342;55.250;37.668;2022-08-01T08:19:10;99790.63;;;24.62;41.64
45369;BME280;51342;55.250;37.668;2022-08-01T08:21:42;99793.25;;;24.67;42.61
45369;BME280;51342;55.250;37.668;2022-08-01T08:24:14;99791.50;;;24.67;42.35
45369;BME280;51342;55.250;37.668;2022-08-01T08:26:53;99786.22;;;24.70;41.35
45369;BME280;51342;55.250;37.668;2022-08-01T08:29:27;99787.97;;;24.77;42.22
45369;BME280;51342;55.250;37.668;2022-08-01T08:32:01;99782.69;;;24.82;41.35
45369;BME280;51342;55.250;37.668;2022-08-01T08:34:32;99787.09;;;24.84;39.61
45369;BME280;51342;55.250;37.668;2022-08-01T08:37:05;99787.09;;;24.89;41.10
45369;BME280;51342;55.250;37.668;2022-08-01T08:39:36;99780.94;;;24.95;38.17
45369;BME280;51342;55.250;37.668;2022-08-01T08:42:10;99777.41;;;25.00;40.38
45369;BME280;51342;55.250;37.668;2022-08-01T08:44:42;99779.22;;;25.06;40.94
45369;BME280;51342;55.250;37.668;2022-08-01T08:47:14;99774.81;;;25.08;38.35
45369;BME280;51342;55.250;37.668;2022-08-01T08:49:48;99769.50;;;25.11;40.16
45369;BME280;51342;55.250;37.668;2022-08-01T08:52:21;99775.66;;;25.18;39.21
45369;BME280;51342;55.250;37.668;2022-08-01T08:54:53;99776.56;;;25.21;38.36
45369;BME280;51342;55.250;37.668;2022-08-01T08:57:26;99775.69;;;25.16;36.58
45369;BME280;51342;55.250;37.668;2022-08-01T08:59:58;99771.25;;;25.12;37.69
45369;BME280;51342;55.250;37.668;2022-08-01T09:02:29;99767.72;;;25.18;37.28
45369;BME280;51342;55.250;37.668;2022-08-01T09:05:01;99760.69;;;25.21;37.64
45369;BME280;51342;55.250;37.668;2022-08-01T09:07:33;99759.75;;;25.34;38.24
45369;BME280;51342;55.250;37.668;2022-08-01T09:10:07;99761.53;;;25.43;37.46
45369;BME280;51342;55.250;37.668;2022-08-01T09:15:51;99750.03;;;25.41;37.44
45369;BME280;51342;55.250;37.668;2022-08-01T09:18:36;99745.66;;;25.37;37.38
45369;BME280;51342;55.250;37.668;2022-08-01T09:21:15;99756.22;;;25.51;36.58
45369;BME280;51342;55.250;37.668;2022-08-01T09:23:52;99742.09;;;25.47;37.54
45369;BME280;51342;55.250;37.668;2022-08-01T09:26:28;99754.47;;;25.39;37.82
45369;BME280;51342;55.250;37.668;2022-08-01T09:29:06;99750.03;;;25.53;37.90
45369;BME280;51342;55.250;37.668;2022-08-01T09:31:43;99749.13;;;25.65;37.49
45369;BME280;51342;55.250;37.668;2022-08-01T09:34:16;99748.19;;;25.69;37.03
45369;BME280;51342;55.250;37.668;2022-08-01T09:36:56;99742.00;;;25.73;33.65
45369;BME280;51342;55.250;37.668;2022-08-01T09:39:31;99757.06;;;25.77;32.83
45369;BME280;51342;55.250;37.668;2022-08-01T09:42:26;99750.88;;;25.66;34.11
45369;BME280;51342;55.250;37.668;2022-08-01T09:44:57;99740.25;;;25.68;32.17
45369;BME280;51342;55.250;37.668;2022-08-01T09:47:39;99735.84;;;25.71;34.15
45369;BME280;51342;55.250;37.668;2022-08-01T09:50:10;99742.91;;;25.80;32.38
45369;BME280;51342;55.250;37.668;2022-08-01T09:52:53;99742.91;;;25.63;33.78
45369;BME280;51342;55.250;37.668;2022-08-01T09:55:25;99740.28;;;25.60;32.53
45369;BME280;51342;55.250;37.668;2022-08-01T09:57:56;99735.00;;;25.58;32.31
45369;BME280;51342;55.250;37.668;2022-08-01T10:00:33;99737.63;;;25.63;33.82
45369;BME280;51342;55.250;37.668;2022-08-01T10:03:24;99739.41;;;25.64;33.50
45369;BME280;51342;55.250;37.668;2022-08-01T10:05:56;99734.09;;;25.61;34.84
45369;BME280;51342;55.250;37.668;2022-08-01T10:08:45;99734.13;;;25.46;33.18
45369;BME280;51342;55.250;37.668;2022-08-01T10:11:18;99733.25;;;25.51;35.30
45369;BME280;51342;55.250;37.668;2022-08-01T10:13:50;99732.34;;;25.61;34.38
45369;BME280;51342;55.250;37.668;2022-08-01T10:16:23;99734.09;;;25.78;34.68
45369;BME280;51342;55.250;37.668;2022-08-01T10:18:56;99735.81;;;25.93;35.08
45369;BME280;51342;55.250;37.668;2022-08-01T10:21:32;99735.75;;;26.05;33.76
45369;BME280;51342;55.250;37.668;2022-08-01T10:24:05;99728.63;;;26.13;33.07
45369;BME280;51342;55.250;37.668;2022-08-01T10:26:37;99739.22;;;26.13;33.68
45369;BME280;51342;55.250;37.668;2022-08-01T10:29:10;99737.47;;;26.09;34.03
45369;BME280;51342;55.250;37.668;2022-08-01T10:31:42;99734.81;;;26.09;36.17
45369;BME280;51342;55.250;37.668;2022-08-01T10:34:15;99732.16;;;26.12;33.49
45369;BME280;51342;55.250;37.668;2022-08-01T10:36:48;99732.22;;;26.01;34.24
45369;BME280;51342;55.250;37.668;2022-08-01T10:39:20;99725.19;;;25.86;33.59
45369;BME280;51342;55.250;37.668;2022-08-01T10:41:52;99733.19;;;25.71;34.62
45369;BME280;51342;55.250;37.668;2022-08-01T10:44:28;99719.94;;;25.70;33.65
45369;BME280;51342;55.250;37.668;2022-08-01T10:47:06;99713.78;;;25.74;35.47
45369;BME280;51342;55.250;37.668;2022-08-01T10:49:49;99723.44;;;25.81;34.47
45369;BME280;51342;55.250;37.668;2022-08-01T10:52:22;99721.69;;;25.84;33.99
45369;BME280;51342;55.250;37.668;2022-08-01T10:55:07;99727.00;;;25.84;33.85
45369;BME280;51342;55.250;37.668;2022-08-01T10:57:47;99724.34;;;25.72;34.04
45369;BME280;51342;55.250;37.668;2022-08-01T11:00:20;99718.22;;;25.55;34.88
45369;BME280;51342;55.250;37.668;2022-08-01T11:03:00;99706.78;;;25.34;33.72
45369;BME280;51342;55.250;37.668;2022-08-01T11:05:35;99709.44;;;25.37;34.02
45369;BME280;51342;55.250;37.668;2022-08-01T11:08:10;99703.22;;;25.51;34.09
45369;BME280;51342;55.250;37.668;2022-08-01T11:11:00;99696.13;;;25.62;34.44
45369;BME280;51342;55.250;37.668;2022-08-01T11:16:33;99702.34;;;25.55;33.68
45369;BME280;51342;55.250;37.668;2022-08-01T11:19:07;99703.25;;;25.38;33.02
45369;BME280;51342;55.250;37.668;2022-08-01T11:27:26;99696.19;;;25.41;35.98
45369;BME280;51342;55.250;37.668;2022-08-01T11:35:24;99690.78;;;25.82;34.53
45369;BME280;51342;55.250;37.668;2022-08-01T11:38:23;99687.25;;;25.80;34.79
45369;BME280;51342;55.250;37.668;2022-08-01T11:41:16;99692.53;;;25.83;32.90
45369;BME280;51342;55.250;37.668;2022-08-01T11:44:01;99688.09;;;25.89;33.37
45369;BME280;51342;55.250;37.668;2022-08-01T11:47:00;99691.59;;;25.92;32.46
45369;BME280;51342;55.250;37.668;2022-08-01T11:52:14;99672.13;;;26.02;33.54
45369;BME280;51342;55.250;37.668;2022-08-01T11:54:50;99678.28;;;26.05;33.89
45369;BME280;51342;55.250;37.668;2022-08-01T11:57:24;99682.66;;;26.12;34.74
45369;BME280;51342;55.250;37.668;2022-08-01T11:59:58;99672.94;;;26.16;33.38
45369;BME280;51342;55.250;37.668;2022-08-01T12:02:31;99678.19;;;26.21;32.72
45369;BME280;51342;55.250;37.668;2022-08-01T12:05:08;99680.88;;;26.16;32.76
45369;BME280;51342;55.250;37.668;2022-08-01T12:07:41;99672.03;;;26.14;33.32
45369;BME280;51342;55.250;37.668;2022-08-01T12:10:16;99670.22;;;26.21;32.42
45369;BME280;51342;55.250;37.668;2022-08-01T12:12:50;99676.47;;;26.12;32.98
45369;BME280;51342;55.250;37.668;2022-08-01T12:15:24;99677.50;;;25.93;32.99
45369;BME280;51342;55.250;37.668;2022-08-01T12:18:04;99681.97;;;25.75;33.17
45369;BME280;51342;55.250;37.668;2022-08-01T12:20:40;99664.34;;;25.56;34.25
45369;BME280;51342;55.250;37.668;2022-08-01T12:23:14;99673.22;;;25.44;35.60
45369;BME280;51342;55.250;37.668;2022-08-01T12:25:51;99668.00;;;25.30;35.14
45369;BME280;51342;55.250;37.668;2022-08-01T12:28:23;99672.41;;;25.18;36.00
45369;BME280;51342;55.250;37.668;2022-08-01T12:30:55;99664.50;;;25.08;35.93
45369;BME280;51342;55.250;37.668;2022-08-01T12:33:26;99663.63;;;25.14;34.87
45369;BME280;51342;55.250;37.668;2022-08-01T12:35:58;99665.31;;;25.24;35.20
45369;BME280;51342;55.250;37.668;2022-08-01T12:38:30;99657.34;;;25.35;35.17
45369;BME280;51342;55.250;37.668;2022-08-01T12:41:04;99652.94;;;25.40;33.65
45369;BME280;51342;55.250;37.668;2022-08-01T12:43:35;99662.63;;;25.47;33.81
45369;BME280;51342;55.250;37.668;2022-08-01T12:46:07;99658.19;;;25.54;34.52
45369;BME280;51342;55.250;37.668;2022-08-01T12:48:42;99657.28;;;25.58;33.94
45369;BME280;51342;55.250;37.668;2022-08-01T12:51:14;99655.53;;;25.58;33.11
45369;BME280;51342;55.250;37.668;2022-08-01T12:53:45;99645.78;;;25.57;33.92
45369;BME280;51342;55.250;37.668;2022-08-01T12:56:31;99652.00;;;25.52;33.28
45369;BME280;51342;55.250;37.668;2022-08-01T12:59:22;99643.19;;;25.48;33.78
45369;BME280;51342;55.250;37.668;2022-08-01T13:01:56;99644.94;;;25.54;33.25
45369;BME280;51342;55.250;37.668;2022-08-01T13:04:27;99646.66;;;25.58;34.21
45369;BME280;51342;55.250;37.668;2022-08-01T13:06:59;99633.44;;;25.56;33.42
45369;BME280;51342;55.250;37.668;2022-08-01T13:09:31;99643.16;;;25.59;34.28
45369;BME280;51342;55.250;37.668;2022-08-01T13:12:09;99636.97;;;25.60;33.58
45369;BME280;51342;55.250;37.668;2022-08-01T13:14:41;99644.03;;;25.58;34.40
45369;BME280;51342;55.250;37.668;2022-08-01T13:17:29;99630.88;;;25.33;33.86
45369;BME280;51342;55.250;37.668;2022-08-01T13:20:01;99635.31;;;25.30;34.14
45369;BME280;51342;55.250;37.668;2022-08-01T13:22:36;99640.63;;;25.27;34.45
45369;BME280;51342;55.250;37.668;2022-08-01T13:25:13;99637.09;;;25.25;32.50
45369;BME280;51342;55.250;37.668;2022-08-01T13:27:44;99637.09;;;25.22;33.64
45369;BME280;51342;55.250;37.668;2022-08-01T13:30:20;99633.56;;;25.21;33.91
45369;BME280;51342;55.250;37.668;2022-08-01T13:32:59;99633.59;;;25.15;33.78
45369;BME280;51342;55.250;37.668;2022-08-01T13:35:31;99629.16;;;25.22;33.71
45369;BME280;51342;55.250;37.668;2022-08-01T13:38:02;99633.56;;;25.24;33.29
45369;BME280;51342;55.250;37.668;2022-08-01T13:40:34;99637.09;;;25.26;34.32
45369;BME280;51342;55.250;37.668;2022-08-01T13:43:05;99636.19;;;25.29;35.20
45369;BME280;51342;55.250;37.668;2022-08-01T13:45:37;99640.63;;;25.31;35.10
45369;BME280;51342;55.250;37.668;2022-08-01T13:48:09;99642.38;;;25.26;33.95
45369;BME280;51342;55.250;37.668;2022-08-01T13:50:41;99642.38;;;25.23;34.26
45369;BME280;51342;55.250;37.668;2022-08-01T13:53:12;99636.22;;;25.21;35.06